sensor_id;sensor_type;location;lat;lon;timestamp;temperature;humidity
5842;DHT22;2947;52.276;9.946;2023-04-16T00:00:00;9.60;99.90
5842;DHT22;2947;52.276;9.946;2023-04-16T00:02:28;8.30;99.90
5842;DHT22;2947;52.276;9.946;2023-04-16T00:04:54;9.60;99.90
5842;DHT22;2947;52.276;9.946;2023-04-16T00:07:19;9.60;99.90
5842;DHT22;2947;52.276;9.946;2023-04-16T00:09:45;9.60;99.90
5842;DHT22;2947;52.276;9.946;2023-04-16T00:12:11;9.60;99.90
5842;DHT22;2947;52.276;9.946;2023-04-16T00:14:37;9.50;99.90
5842;DHT22;2947;52.276;9.946;2023-04-16T00:17:03;9.60;99.90
5842;DHT22;2947;52.276;9.946;2023-04-16T00:19:28;9.60;99.90
5842;DHT22;2947;52.276;9.946;2023-04-16T00:21:54;9.60;99.90
5842;DHT22;2947;52.276;9.946;2023-04-16T00:24:20;9.50;99.90
5842;DHT22;2947;52.276;9.946;2023-04-16T00:26:45;9.50;99.90
5842;DHT22;2947;52.276;9.946;2023-04-16T00:29:11;9.60;99.90
5842;DHT22;2947;52.276;9.946;2023-04-16T00:31:37;9.60;99.90
5842;DHT22;2947;52.276;9.946;2023-04-16T00:34:03;10.00;99.90
5842;DHT22;2947;52.276;9.946;2023-04-16T00:36:29;9.60;99.90
5842;DHT22;2947;52.276;9.946;2023-04-16T00:38:55;9.60;99.90
5842;DHT22;2947;52.276;9.946;2023-04-16T00:41:22;9.30;99.90
5842;DHT22;2947;52.276;9.946;2023-04-16T00:43:48;9.50;99.90
5842;DHT22;2947;52.276;9.946;2023-04-16T00:46:15;10.20;99.90
5842;DHT22;2947;52.276;9.946;2023-04-16T00:48:42;9.50;99.90
5842;DHT22;2947;52.276;9.946;2023-04-16T00:51:09;9.50;99.90
5842;DHT22;2947;52.276;9.946;2023-04-16T00:53:36;9.50;99.90
5842;DHT22;2947;52.276;9.946;2023-04-16T00:56:03;10.40;99.90
5842;DHT22;2947;52.276;9.946;2023-04-16T00:58:31;9.50;99.90
5842;DHT22;2947;52.276;9.946;2023-04-16T01:00:59;9.60;99.90
5842;DHT22;2947;52.276;9.946;2023-04-16T01:03:41;9.60;99.90
5842;DHT22;2947;52.276;9.946;2023-04-16T01:06:08;9.50;99.90
5842;DHT22;2947;52.276;9.946;2023-04-16T01:08:35;9.50;99.90
5842;DHT22;2947;52.276;9.946;2023-04-16T01:11:01;9.50;99.90
5842;DHT22;2947;52.276;9.946;2023-04-16T01:13:27;9.60;99.90
5842;DHT22;2947;52.276;9.946;2023-04-16T01:15:53;9.50;99.90
5842;DHT22;2947;52.276;9.946;2023-04-16T01:18:20;9.30;99.90
5842;DHT22;2947;52.276;9.946;2023-04-16T01:20:48;9.50;99.90
5842;DHT22;2947;52.276;9.946;2023-04-16T01:23:15;9.50;99.90
5842;DHT22;2947;52.276;9.946;2023-04-16T01:25:45;9.40;99.90
5842;DHT22;2947;52.276;9.946;2023-04-16T01:28:11;9.40;99.90
5842;DHT22;2947;52.276;9.946;2023-04-16T01:30:37;9.30;99.90
5842;DHT22;2947;52.276;9.946;2023-04-16T01:33:03;9.30;99.90
5842;DHT22;2947;52.276;9.946;2023-04-16T01:35:29;9.30;99.90
5842;DHT22;2947;52.276;9.946;2023-04-16T01:37:55;9.30;99.90
5842;DHT22;2947;52.276;9.946;2023-04-16T01:40:21;9.30;99.90
5842;DHT22;2947;52.276;9.946;2023-04-16T01:42:47;9.20;99.90
5842;DHT22;2947;52.276;9.946;2023-04-16T01:45:13;9.20;99.90
5842;DHT22;2947;52.276;9.946;2023-04-16T01:47:39;9.30;99.90
5842;DHT22;2947;52.276;9.946;2023-04-16T01:50:05;9.80;99.90
5842;DHT22;2947;52.276;9.946;2023-04-16T01:52:31;9.30;99.90
5842;DHT22;2947;52.276;9.946;2023-04-16T01:54:57;9.30;99.90
5842;DHT22;2947;52.276;9.946;2023-04-16T01:57:23;9.20;99.90
5842;DHT22;2947;52.276;9.946;2023-04-16T01:59:48;9.10;99.90
5842;DHT22;2947;52.276;9.946;2023-04-16T02:02:15;9.10;99.90
5842;DHT22;2947;52.276;9.946;2023-04-16T02:04:43;9.10;99.90
5842;DHT22;2947;52.276;9.946;2023-04-16T02:07:10;9.80;99.90
5842;DHT22;2947;52.276;9.946;2023-04-16T02:09:37;9.00;99.90
5842;DHT22;2947;52.276;9.946;2023-04-16T02:12:04;9.00;99.90
5842;DHT22;2947;52.276;9.946;2023-04-16T02:14:31;9.00;99.90
5842;DHT22;2947;52.276;9.946;2023-04-16T02:16:57;9.00;99.90
5842;DHT22;2947;52.276;9.946;2023-04-16T02:19:23;9.00;99.90
5842;DHT22;2947;52.276;9.946;2023-04-16T02:21:52;8.90;99.90
5842;DHT22;2947;52.276;9.946;2023-04-16T02:24:18;8.90;99.90
5842;DHT22;2947;52.276;9.946;2023-04-16T02:26:46;8.90;99.90
5842;DHT22;2947;52.276;9.946;2023-04-16T02:29:12;9.00;99.90
5842;DHT22;2947;52.276;9.946;2023-04-16T02:31:39;8.80;99.90
5842;DHT22;2947;52.276;9.946;2023-04-16T02:34:05;8.00;99.90
5842;DHT22;2947;52.276;9.946;2023-04-16T02:36:31;8.80;99.90
5842;DHT22;2947;52.276;9.946;2023-04-16T02:38:57;8.80;99.90
5842;DHT22;2947;52.276;9.946;2023-04-16T02:41:24;8.80;99.90
5842;DHT22;2947;52.276;9.946;2023-04-16T02:43:50;8.80;99.90
5842;DHT22;2947;52.276;9.946;2023-04-16T02:46:16;9.70;99.90
5842;DHT22;2947;52.276;9.946;2023-04-16T02:48:42;8.70;99.90
5842;DHT22;2947;52.276;9.946;2023-04-16T02:51:07;8.70;99.90
5842;DHT22;2947;52.276;9.946;2023-04-16T02:53:35;8.60;99.90
5842;DHT22;2947;52.276;9.946;2023-04-16T02:56:01;8.70;99.90
5842;DHT22;2947;52.276;9.946;2023-04-16T02:58:26;8.60;99.90
5842;DHT22;2947;52.276;9.946;2023-04-16T03:00:53;8.60;99.90
5842;DHT22;2947;52.276;9.946;2023-04-16T03:03:20;8.60;99.90
5842;DHT22;2947;52.276;9.946;2023-04-16T03:05:46;8.60;99.90
5842;DHT22;2947;52.276;9.946;2023-04-16T03:08:13;8.50;99.90
5842;DHT22;2947;52.276;9.946;2023-04-16T03:10:38;8.40;99.90
5842;DHT22;2947;52.276;9.946;2023-04-16T03:13:05;8.40;99.90
5842;DHT22;2947;52.276;9.946;2023-04-16T03:15:31;8.30;99.90
5842;DHT22;2947;52.276;9.946;2023-04-16T03:17:57;8.30;99.90
5842;DHT22;2947;52.276;9.946;2023-04-16T03:20:23;8.20;99.90
5842;DHT22;2947;52.276;9.946;2023-04-16T03:22:49;8.30;99.90
5842;DHT22;2947;52.276;9.946;2023-04-16T03:25:17;8.20;99.90
5842;DHT22;2947;52.276;9.946;2023-04-16T03:27:44;7.60;99.90
5842;DHT22;2947;52.276;9.946;2023-04-16T03:30:10;8.30;99.90
5842;DHT22;2947;52.276;9.946;2023-04-16T03:32:37;8.30;99.90
5842;DHT22;2947;52.276;9.946;2023-04-16T03:35:04;8.30;99.90
5842;DHT22;2947;52.276;9.946;2023-04-16T03:37:32;8.30;99.90
5842;DHT22;2947;52.276;9.946;2023-04-16T03:39:58;8.30;99.90
5842;DHT22;2947;52.276;9.946;2023-04-16T03:42:24;8.30;99.90
5842;DHT22;2947;52.276;9.946;2023-04-16T03:44:51;8.30;99.90
5842;DHT22;2947;52.276;9.946;2023-04-16T03:47:18;8.30;99.90
5842;DHT22;2947;52.276;9.946;2023-04-16T03:49:45;8.30;99.90
5842;DHT22;2947;52.276;9.946;2023-04-16T03:52:13;8.30;99.90
5842;DHT22;2947;52.276;9.946;2023-04-16T03:54:39;8.20;99.90
5842;DHT22;2947;52.276;9.946;2023-04-16T03:57:05;8.20;99.90
5842;DHT22;2947;52.276;9.946;2023-04-16T03:59:33;8.20;99.90
5842;DHT22;2947;52.276;9.946;2023-04-16T04:01:59;8.10;99.90
5842;DHT22;2947;52.276;9.946;2023-04-16T04:04:24;8.10;99.90
5842;DHT22;2947;52.276;9.946;2023-04-16T04:06:50;9.00;99.90
5842;DHT22;2947;52.276;9.946;2023-04-16T04:09:16;8.00;99.90
5842;DHT22;2947;52.276;9.946;2023-04-16T04:11:42;8.10;99.90
5842;DHT22;2947;52.276;9.946;2023-04-16T04:14:08;8.10;99.90
5842;DHT22;2947;52.276;9.946;2023-04-16T04:16:34;8.10;99.90
5842;DHT22;2947;52.276;9.946;2023-04-16T04:19:00;8.10;99.90
5842;DHT22;2947;52.276;9.946;2023-04-16T04:21:27;8.00;99.90
5842;DHT22;2947;52.276;9.946;2023-04-16T04:23:53;8.00;99.90
5842;DHT22;2947;52.276;9.946;2023-04-16T04:26:19;8.00;99.90
5842;DHT22;2947;52.276;9.946;2023-04-16T04:28:45;8.00;99.90
5842;DHT22;2947;52.276;9.946;2023-04-16T04:31:11;7.40;99.90
5842;DHT22;2947;52.276;9.946;2023-04-16T04:33:37;8.00;99.90
5842;DHT22;2947;52.276;9.946;2023-04-16T04:36:03;8.10;99.90
5842;DHT22;2947;52.276;9.946;2023-04-16T04:38:29;8.00;99.90
5842;DHT22;2947;52.276;9.946;2023-04-16T04:40:55;8.10;99.90
5842;DHT22;2947;52.276;9.946;2023-04-16T04:43:22;8.10;99.90
5842;DHT22;2947;52.276;9.946;2023-04-16T04:45:48;6.90;99.90
5842;DHT22;2947;52.276;9.946;2023-04-16T04:48:14;8.10;99.90
5842;DHT22;2947;52.276;9.946;2023-04-16T04:50:41;8.00;99.90
5842;DHT22;2947;52.276;9.946;2023-04-16T04:53:07;8.10;99.90
5842;DHT22;2947;52.276;9.946;2023-04-16T04:55:39;8.10;99.90
5842;DHT22;2947;52.276;9.946;2023-04-16T04:58:05;8.10;99.90
5842;DHT22;2947;52.276;9.946;2023-04-16T05:00:33;8.00;99.90
5842;DHT22;2947;52.276;9.946;2023-04-16T05:03:01;8.00;99.90
5842;DHT22;2947;52.276;9.946;2023-04-16T05:05:29;8.00;99.90
5842;DHT22;2947;52.276;9.946;2023-04-16T05:07:54;8.00;99.90
5842;DHT22;2947;52.276;9.946;2023-04-16T05:10:20;8.00;99.90
5842;DHT22;2947;52.276;9.946;2023-04-16T05:12:46;8.00;99.90
5842;DHT22;2947;52.276;9.946;2023-04-16T05:15:13;7.90;99.90
5842;DHT22;2947;52.276;9.946;2023-04-16T05:17:39;7.90;99.90
5842;DHT22;2947;52.276;9.946;2023-04-16T05:20:07;7.90;99.90
5842;DHT22;2947;52.276;9.946;2023-04-16T05:22:33;7.90;99.90
5842;DHT22;2947;52.276;9.946;2023-04-16T05:24:59;7.90;99.90
5842;DHT22;2947;52.276;9.946;2023-04-16T05:27:25;7.90;99.90
5842;DHT22;2947;52.276;9.946;2023-04-16T05:29:51;7.90;99.90
5842;DHT22;2947;52.276;9.946;2023-04-16T05:32:17;7.80;99.90
5842;DHT22;2947;52.276;9.946;2023-04-16T05:34:43;7.80;99.90
5842;DHT22;2947;52.276;9.946;2023-04-16T05:37:09;7.80;99.90
5842;DHT22;2947;52.276;9.946;2023-04-16T05:39:35;7.80;99.90
5842;DHT22;2947;52.276;9.946;2023-04-16T05:42:00;7.80;99.90
5842;DHT22;2947;52.276;9.946;2023-04-16T05:44:26;7.90;99.90
5842;DHT22;2947;52.276;9.946;2023-04-16T05:46:53;7.80;99.90
5842;DHT22;2947;52.276;9.946;2023-04-16T05:49:18;7.90;99.90
5842;DHT22;2947;52.276;9.946;2023-04-16T05:51:44;8.00;99.90
5842;DHT22;2947;52.276;9.946;2023-04-16T05:54:10;8.00;99.90
5842;DHT22;2947;52.276;9.946;2023-04-16T05:56:36;8.00;99.90
5842;DHT22;2947;52.276;9.946;2023-04-16T05:59:02;8.00;99.90
5842;DHT22;2947;52.276;9.946;2023-04-16T06:01:28;7.90;99.90
5842;DHT22;2947;52.276;9.946;2023-04-16T06:03:54;7.90;99.90
5842;DHT22;2947;52.276;9.946;2023-04-16T06:06:21;8.00;99.90
5842;DHT22;2947;52.276;9.946;2023-04-16T06:08:51;8.00;99.90
5842;DHT22;2947;52.276;9.946;2023-04-16T06:11:18;8.00;99.90
5842;DHT22;2947;52.276;9.946;2023-04-16T06:13:43;8.10;99.90
5842;DHT22;2947;52.276;9.946;2023-04-16T06:16:09;8.00;99.90
5842;DHT22;2947;52.276;9.946;2023-04-16T06:18:35;8.10;99.90
5842;DHT22;2947;52.276;9.946;2023-04-16T06:21:03;8.00;99.90
5842;DHT22;2947;52.276;9.946;2023-04-16T06:23:29;8.00;99.90
5842;DHT22;2947;52.276;9.946;2023-04-16T06:25:54;8.10;99.90
5842;DHT22;2947;52.276;9.946;2023-04-16T06:28:20;8.10;99.90
5842;DHT22;2947;52.276;9.946;2023-04-16T06:30:46;8.10;99.90
5842;DHT22;2947;52.276;9.946;2023-04-16T06:33:12;8.10;99.90
5842;DHT22;2947;52.276;9.946;2023-04-16T06:35:38;8.10;99.90
5842;DHT22;2947;52.276;9.946;2023-04-16T06:38:03;8.10;99.90
5842;DHT22;2947;52.276;9.946;2023-04-16T06:40:29;8.20;99.90
5842;DHT22;2947;52.276;9.946;2023-04-16T06:42:55;8.20;99.90
5842;DHT22;2947;52.276;9.946;2023-04-16T06:45:20;8.20;99.90
5842;DHT22;2947;52.276;9.946;2023-04-16T06:47:46;8.20;99.90
5842;DHT22;2947;52.276;9.946;2023-04-16T06:50:12;8.10;99.90
5842;DHT22;2947;52.276;9.946;2023-04-16T06:52:38;8.20;99.90
5842;DHT22;2947;52.276;9.946;2023-04-16T06:55:04;8.30;99.90
5842;DHT22;2947;52.276;9.946;2023-04-16T06:57:31;8.30;99.90
5842;DHT22;2947;52.276;9.946;2023-04-16T06:59:57;8.30;99.90
5842;DHT22;2947;52.276;9.946;2023-04-16T07:02:24;8.40;99.90
5842;DHT22;2947;52.276;9.946;2023-04-16T07:04:50;8.40;99.90
5842;DHT22;2947;52.276;9.946;2023-04-16T07:07:17;8.40;99.90
5842;DHT22;2947;52.276;9.946;2023-04-16T07:09:42;8.40;99.90
5842;DHT22;2947;52.276;9.946;2023-04-16T07:12:08;8.40;99.90
5842;DHT22;2947;52.276;9.946;2023-04-16T07:14:35;8.40;99.90
5842;DHT22;2947;52.276;9.946;2023-04-16T07:17:01;8.30;99.90
5842;DHT22;2947;52.276;9.946;2023-04-16T07:19:27;8.40;99.90
5842;DHT22;2947;52.276;9.946;2023-04-16T07:21:57;7.30;99.90
5842;DHT22;2947;52.276;9.946;2023-04-16T07:24:25;8.40;99.90
5842;DHT22;2947;52.276;9.946;2023-04-16T07:26:51;8.40;99.90
5842;DHT22;2947;52.276;9.946;2023-04-16T07:29:17;8.50;99.90
5842;DHT22;2947;52.276;9.946;2023-04-16T07:31:43;8.50;99.90
5842;DHT22;2947;52.276;9.946;2023-04-16T07:34:09;8.60;99.90
5842;DHT22;2947;52.276;9.946;2023-04-16T07:36:35;8.60;99.90
5842;DHT22;2947;52.276;9.946;2023-04-16T07:39:01;8.60;99.90
5842;DHT22;2947;52.276;9.946;2023-04-16T07:41:27;8.70;99.90
5842;DHT22;2947;52.276;9.946;2023-04-16T07:43:54;8.50;99.90
5842;DHT22;2947;52.276;9.946;2023-04-16T07:46:20;8.60;99.90
5842;DHT22;2947;52.276;9.946;2023-04-16T07:48:46;8.60;99.90
5842;DHT22;2947;52.276;9.946;2023-04-16T07:51:12;8.70;99.90
5842;DHT22;2947;52.276;9.946;2023-04-16T07:53:38;8.70;99.90
5842;DHT22;2947;52.276;9.946;2023-04-16T07:56:04;8.70;99.90
5842;DHT22;2947;52.276;9.946;2023-04-16T07:58:29;8.60;99.90
5842;DHT22;2947;52.276;9.946;2023-04-16T08:00:55;8.60;99.90
5842;DHT22;2947;52.276;9.946;2023-04-16T08:03:21;8.70;99.90
5842;DHT22;2947;52.276;9.946;2023-04-16T08:05:47;8.70;99.90
5842;DHT22;2947;52.276;9.946;2023-04-16T08:08:12;8.70;99.90
5842;DHT22;2947;52.276;9.946;2023-04-16T08:10:38;8.70;99.90
5842;DHT22;2947;52.276;9.946;2023-04-16T08:13:04;8.70;99.90
5842;DHT22;2947;52.276;9.946;2023-04-16T08:15:30;8.80;99.90
5842;DHT22;2947;52.276;9.946;2023-04-16T08:17:56;8.80;99.90
5842;DHT22;2947;52.276;9.946;2023-04-16T08:20:21;8.50;99.90
5842;DHT22;2947;52.276;9.946;2023-04-16T08:22:48;9.50;99.90
5842;DHT22;2947;52.276;9.946;2023-04-16T08:25:14;9.00;99.90
5842;DHT22;2947;52.276;9.946;2023-04-16T08:27:39;9.00;99.90
5842;DHT22;2947;52.276;9.946;2023-04-16T08:30:07;9.00;99.90
5842;DHT22;2947;52.276;9.946;2023-04-16T08:32:32;9.00;99.90
5842;DHT22;2947;52.276;9.946;2023-04-16T08:34:58;9.00;99.90
5842;DHT22;2947;52.276;9.946;2023-04-16T08:37:25;9.10;99.90
5842;DHT22;2947;52.276;9.946;2023-04-16T08:39:51;9.00;99.90
5842;DHT22;2947;52.276;9.946;2023-04-16T08:42:23;9.10;99.90
5842;DHT22;2947;52.276;9.946;2023-04-16T08:45:12;9.10;99.90
5842;DHT22;2947;52.276;9.946;2023-04-16T08:47:46;9.30;99.90
5842;DHT22;2947;52.276;9.946;2023-04-16T08:50:16;9.20;99.90
5842;DHT22;2947;52.276;9.946;2023-04-16T08:52:48;9.30;99.90
5842;DHT22;2947;52.276;9.946;2023-04-16T08:55:20;9.30;99.90
5842;DHT22;2947;52.276;9.946;2023-04-16T08:57:51;9.30;99.90
5842;DHT22;2947;52.276;9.946;2023-04-16T09:00:19;9.40;99.90
5842;DHT22;2947;52.276;9.946;2023-04-16T09:02:45;9.40;99.90
5842;DHT22;2947;52.276;9.946;2023-04-16T09:05:14;9.40;99.90
5842;DHT22;2947;52.276;9.946;2023-04-16T09:07:46;9.40;99.90
5842;DHT22;2947;52.276;9.946;2023-04-16T09:10:14;9.50;99.90
5842;DHT22;2947;52.276;9.946;2023-04-16T09:12:41;9.40;99.90
5842;DHT22;2947;52.276;9.946;2023-04-16T09:15:09;9.50;99.90
5842;DHT22;2947;52.276;9.946;2023-04-16T09:17:35;9.50;99.90
5842;DHT22;2947;52.276;9.946;2023-04-16T09:20:04;9.50;99.90
5842;DHT22;2947;52.276;9.946;2023-04-16T09:22:34;9.60;99.90
5842;DHT22;2947;52.276;9.946;2023-04-16T09:25:00;9.70;99.90
5842;DHT22;2947;52.276;9.946;2023-04-16T09:27:26;9.70;99.90
5842;DHT22;2947;52.276;9.946;2023-04-16T09:29:52;9.60;99.90
5842;DHT22;2947;52.276;9.946;2023-04-16T09:32:26;9.70;99.90
5842;DHT22;2947;52.276;9.946;2023-04-16T09:35:00;9.70;99.90
5842;DHT22;2947;52.276;9.946;2023-04-16T09:37:27;9.70;99.90
5842;DHT22;2947;52.276;9.946;2023-04-16T09:40:02;9.70;99.90
5842;DHT22;2947;52.276;9.946;2023-04-16T09:42:31;9.80;99.90
5842;DHT22;2947;52.276;9.946;2023-04-16T09:44:59;9.80;99.90
5842;DHT22;2947;52.276;9.946;2023-04-16T09:47:37;9.80;99.90
5842;DHT22;2947;52.276;9.946;2023-04-16T09:50:08;9.80;99.90
5842;DHT22;2947;52.276;9.946;2023-04-16T09:52:37;9.80;99.90
5842;DHT22;2947;52.276;9.946;2023-04-16T09:55:03;9.90;99.90
5842;DHT22;2947;52.276;9.946;2023-04-16T09:57:29;9.90;99.90
5842;DHT22;2947;52.276;9.946;2023-04-16T10:00:01;9.90;99.90
5842;DHT22;2947;52.276;9.946;2023-04-16T10:02:33;10.50;99.90
5842;DHT22;2947;52.276;9.946;2023-04-16T10:05:01;10.00;99.90
5842;DHT22;2947;52.276;9.946;2023-04-16T10:07:34;10.10;99.90
5842;DHT22;2947;52.276;9.946;2023-04-16T10:10:00;9.90;99.90
5842;DHT22;2947;52.276;9.946;2023-04-16T10:12:28;10.00;99.90
5842;DHT22;2947;52.276;9.946;2023-04-16T10:14:54;9.90;97.60
5842;DHT22;2947;52.276;9.946;2023-04-16T10:17:20;9.90;99.40
5842;DHT22;2947;52.276;9.946;2023-04-16T10:19:47;9.90;93.00
5842;DHT22;2947;52.276;9.946;2023-04-16T10:22:13;10.00;99.90
5842;DHT22;2947;52.276;9.946;2023-04-16T10:24:40;10.00;99.90
5842;DHT22;2947;52.276;9.946;2023-04-16T10:27:06;10.00;99.90
5842;DHT22;2947;52.276;9.946;2023-04-16T10:29:32;9.90;99.90
5842;DHT22;2947;52.276;9.946;2023-04-16T10:31:58;9.90;99.90
5842;DHT22;2947;52.276;9.946;2023-04-16T10:34:25;10.50;99.90
5842;DHT22;2947;52.276;9.946;2023-04-16T10:36:52;10.00;99.90
5842;DHT22;2947;52.276;9.946;2023-04-16T10:39:24;10.00;99.90
5842;DHT22;2947;52.276;9.946;2023-04-16T10:42:11;11.00;99.90
5842;DHT22;2947;52.276;9.946;2023-04-16T10:44:38;10.90;99.90
5842;DHT22;2947;52.276;9.946;2023-04-16T10:47:11;9.80;99.90
5842;DHT22;2947;52.276;9.946;2023-04-16T10:49:38;9.80;99.90
5842;DHT22;2947;52.276;9.946;2023-04-16T10:52:12;9.70;99.90
5842;DHT22;2947;52.276;9.946;2023-04-16T10:54:41;11.00;99.90
5842;DHT22;2947;52.276;9.946;2023-04-16T10:57:08;9.70;99.90
5842;DHT22;2947;52.276;9.946;2023-04-16T10:59:37;9.70;99.90
5842;DHT22;2947;52.276;9.946;2023-04-16T11:02:17;9.60;99.90
5842;DHT22;2947;52.276;9.946;2023-04-16T11:04:47;9.60;99.90
5842;DHT22;2947;52.276;9.946;2023-04-16T11:07:18;9.60;99.90
5842;DHT22;2947;52.276;9.946;2023-04-16T11:09:57;9.60;99.90
5842;DHT22;2947;52.276;9.946;2023-04-16T11:12:41;9.60;99.90
5842;DHT22;2947;52.276;9.946;2023-04-16T11:15:15;9.60;99.90
5842;DHT22;2947;52.276;9.946;2023-04-16T11:17:45;9.60;99.90
5842;DHT22;2947;52.276;9.946;2023-04-16T11:20:26;9.60;99.90
5842;DHT22;2947;52.276;9.946;2023-04-16T11:22:54;9.40;99.90
5842;DHT22;2947;52.276;9.946;2023-04-16T11:25:25;9.60;99.90
5842;DHT22;2947;52.276;9.946;2023-04-16T11:27:54;9.60;99.90
5842;DHT22;2947;52.276;9.946;2023-04-16T11:30:35;9.60;99.90
5842;DHT22;2947;52.276;9.946;2023-04-16T11:33:07;9.50;99.90
5842;DHT22;2947;52.276;9.946;2023-04-16T11:35:34;9.50;99.90
5842;DHT22;2947;52.276;9.946;2023-04-16T11:38:04;9.50;99.90
5842;DHT22;2947;52.276;9.946;2023-04-16T11:40:34;9.60;99.90
5842;DHT22;2947;52.276;9.946;2023-04-16T11:43:01;9.60;99.90
5842;DHT22;2947;52.276;9.946;2023-04-16T11:45:29;9.50;99.90
5842;DHT22;2947;52.276;9.946;2023-04-16T11:47:55;9.50;99.90
5842;DHT22;2947;52.276;9.946;2023-04-16T11:50:26;9.50;99.90
5842;DHT22;2947;52.276;9.946;2023-04-16T11:52:54;9.50;99.90
5842;DHT22;2947;52.276;9.946;2023-04-16T11:55:22;9.50;99.90
5842;DHT22;2947;52.276;9.946;2023-04-16T11:57:49;9.60;99.90
5842;DHT22;2947;52.276;9.946;2023-04-16T12:00:15;9.50;99.90
5842;DHT22;2947;52.276;9.946;2023-04-16T12:05:35;9.60;99.90
5842;DHT22;2947;52.276;9.946;2023-04-16T12:08:07;9.60;99.90
5842;DHT22;2947;52.276;9.946;2023-04-16T12:10:56;9.60;99.90
5842;DHT22;2947;52.276;9.946;2023-04-16T12:13:22;9.50;99.90
5842;DHT22;2947;52.276;9.946;2023-04-16T12:15:53;9.60;99.90
5842;DHT22;2947;52.276;9.946;2023-04-16T12:18:21;9.60;99.90
5842;DHT22;2947;52.276;9.946;2023-04-16T12:20:49;9.60;99.90
5842;DHT22;2947;52.276;9.946;2023-04-16T12:25:54;9.60;99.90
5842;DHT22;2947;52.276;9.946;2023-04-16T12:28:31;9.60;99.90
5842;DHT22;2947;52.276;9.946;2023-04-16T12:30:58;9.60;99.90
5842;DHT22;2947;52.276;9.946;2023-04-16T12:33:24;9.60;99.90
5842;DHT22;2947;52.276;9.946;2023-04-16T12:35:50;9.70;99.90
5842;DHT22;2947;52.276;9.946;2023-04-16T12:38:17;9.70;99.90
5842;DHT22;2947;52.276;9.946;2023-04-16T12:40:43;9.70;99.90
5842;DHT22;2947;52.276;9.946;2023-04-16T12:43:09;9.80;99.90
5842;DHT22;2947;52.276;9.946;2023-04-16T12:45:36;9.80;99.90
5842;DHT22;2947;52.276;9.946;2023-04-16T12:50:38;9.90;99.90
5842;DHT22;2947;52.276;9.946;2023-04-16T12:53:04;9.90;99.90
5842;DHT22;2947;52.276;9.946;2023-04-16T12:55:30;10.10;99.90
5842;DHT22;2947;52.276;9.946;2023-04-16T12:57:56;10.20;99.90
5842;DHT22;2947;52.276;9.946;2023-04-16T13:00:22;10.10;99.90
5842;DHT22;2947;52.276;9.946;2023-04-16T13:02:48;10.10;99.90
5842;DHT22;2947;52.276;9.946;2023-04-16T13:05:14;10.30;99.90
5842;DHT22;2947;52.276;9.946;2023-04-16T13:07:42;11.30;99.90
5842;DHT22;2947;52.276;9.946;2023-04-16T13:10:08;9.10;99.90
5842;DHT22;2947;52.276;9.946;2023-04-16T13:12:35;10.40;99.90
5842;DHT22;2947;52.276;9.946;2023-04-16T13:15:01;10.40;99.90
5842;DHT22;2947;52.276;9.946;2023-04-16T13:17:26;10.40;99.90
5842;DHT22;2947;52.276;9.946;2023-04-16T13:19:52;10.50;99.90
5842;DHT22;2947;52.276;9.946;2023-04-16T13:22:18;10.40;99.90
5842;DHT22;2947;52.276;9.946;2023-04-16T13:24:44;10.50;99.90
5842;DHT22;2947;52.276;9.946;2023-04-16T13:27:10;10.60;99.90
5842;DHT22;2947;52.276;9.946;2023-04-16T13:29:37;10.70;99.90
5842;DHT22;2947;52.276;9.946;2023-04-16T13:32:03;10.90;99.90
5842;DHT22;2947;52.276;9.946;2023-04-16T13:34:31;10.80;99.90
5842;DHT22;2947;52.276;9.946;2023-04-16T13:36:57;11.00;99.90
5842;DHT22;2947;52.276;9.946;2023-04-16T13:39:22;11.50;99.90
5842;DHT22;2947;52.276;9.946;2023-04-16T13:41:48;11.10;99.90
5842;DHT22;2947;52.276;9.946;2023-04-16T13:44:15;11.10;99.90
5842;DHT22;2947;52.276;9.946;2023-04-16T13:46:41;11.20;99.90
5842;DHT22;2947;52.276;9.946;2023-04-16T13:49:12;11.30;99.90
5842;DHT22;2947;52.276;9.946;2023-04-16T13:51:38;11.30;99.90
5842;DHT22;2947;52.276;9.946;2023-04-16T13:54:05;11.40;99.90
5842;DHT22;2947;52.276;9.946;2023-04-16T13:56:31;11.50;99.90
5842;DHT22;2947;52.276;9.946;2023-04-16T13:58:57;11.50;99.90
5842;DHT22;2947;52.276;9.946;2023-04-16T14:01:23;11.60;99.90
5842;DHT22;2947;52.276;9.946;2023-04-16T14:03:49;11.70;99.90
5842;DHT22;2947;52.276;9.946;2023-04-16T14:06:15;11.70;99.90
5842;DHT22;2947;52.276;9.946;2023-04-16T14:08:43;11.80;99.90
5842;DHT22;2947;52.276;9.946;2023-04-16T14:11:10;11.80;99.90
5842;DHT22;2947;52.276;9.946;2023-04-16T14:13:36;11.80;99.90
5842;DHT22;2947;52.276;9.946;2023-04-16T14:16:02;11.90;99.90
5842;DHT22;2947;52.276;9.946;2023-04-16T14:18:28;11.90;99.90
5842;DHT22;2947;52.276;9.946;2023-04-16T14:20:55;12.00;99.90
5842;DHT22;2947;52.276;9.946;2023-04-16T14:23:21;12.10;99.90
5842;DHT22;2947;52.276;9.946;2023-04-16T14:25:47;12.10;99.90
5842;DHT22;2947;52.276;9.946;2023-04-16T14:28:14;12.10;99.90
5842;DHT22;2947;52.276;9.946;2023-04-16T14:30:40;12.20;99.90
5842;DHT22;2947;52.276;9.946;2023-04-16T14:33:08;12.30;99.90
5842;DHT22;2947;52.276;9.946;2023-04-16T14:35:34;12.30;99.90
5842;DHT22;2947;52.276;9.946;2023-04-16T14:38:00;12.40;99.90
5842;DHT22;2947;52.276;9.946;2023-04-16T14:40:26;12.40;99.90
5842;DHT22;2947;52.276;9.946;2023-04-16T14:42:52;12.50;99.90
5842;DHT22;2947;52.276;9.946;2023-04-16T14:45:18;12.50;99.90
5842;DHT22;2947;52.276;9.946;2023-04-16T14:47:44;12.60;99.90
5842;DHT22;2947;52.276;9.946;2023-04-16T14:50:12;12.60;99.90
5842;DHT22;2947;52.276;9.946;2023-04-16T14:52:40;12.50;99.90
5842;DHT22;2947;52.276;9.946;2023-04-16T14:55:06;12.50;99.90
5842;DHT22;2947;52.276;9.946;2023-04-16T14:57:32;12.60;99.90
5842;DHT22;2947;52.276;9.946;2023-04-16T14:59:58;12.70;99.90
5842;DHT22;2947;52.276;9.946;2023-04-16T15:02:24;13.40;77.10
5842;DHT22;2947;52.276;9.946;2023-04-16T15:04:50;12.70;82.00
5842;DHT22;2947;52.276;9.946;2023-04-16T15:07:16;12.70;58.90
5842;DHT22;2947;52.276;9.946;2023-04-16T15:09:42;12.80;67.10
5842;DHT22;2947;52.276;9.946;2023-04-16T15:12:07;12.70;19.10
5842;DHT22;2947;52.276;9.946;2023-04-16T15:14:33;12.70;99.20
5842;DHT22;2947;52.276;9.946;2023-04-16T15:16:59;12.60;99.90
5842;DHT22;2947;52.276;9.946;2023-04-16T15:19:25;12.60;99.90
5842;DHT22;2947;52.276;9.946;2023-04-16T15:21:51;12.50;99.90
5842;DHT22;2947;52.276;9.946;2023-04-16T15:24:18;12.60;99.90
5842;DHT22;2947;52.276;9.946;2023-04-16T15:26:43;12.60;99.90
5842;DHT22;2947;52.276;9.946;2023-04-16T15:29:09;12.60;99.90
5842;DHT22;2947;52.276;9.946;2023-04-16T15:31:36;12.60;99.90
5842;DHT22;2947;52.276;9.946;2023-04-16T15:34:01;12.50;26.00
5842;DHT22;2947;52.276;9.946;2023-04-16T15:36:27;12.60;2.80
5842;DHT22;2947;52.276;9.946;2023-04-16T15:38:53;12.60;9.40
5842;DHT22;2947;52.276;9.946;2023-04-16T15:41:19;12.60;1.00
5842;DHT22;2947;52.276;9.946;2023-04-16T15:43:44;12.70;2.80
5842;DHT22;2947;52.276;9.946;2023-04-16T15:46:10;12.70;1.00
5842;DHT22;2947;52.276;9.946;2023-04-16T15:48:36;12.80;1.00
5842;DHT22;2947;52.276;9.946;2023-04-16T15:51:02;12.70;1.00
5842;DHT22;2947;52.276;9.946;2023-04-16T15:53:27;12.70;2.00
5842;DHT22;2947;52.276;9.946;2023-04-16T15:55:53;12.70;1.00
5842;DHT22;2947;52.276;9.946;2023-04-16T15:58:19;12.70;1.00
5842;DHT22;2947;52.276;9.946;2023-04-16T16:00:46;13.40;1.00
5842;DHT22;2947;52.276;9.946;2023-04-16T16:03:17;12.70;1.00
5842;DHT22;2947;52.276;9.946;2023-04-16T16:05:45;12.70;1.00
5842;DHT22;2947;52.276;9.946;2023-04-16T16:08:13;12.70;1.00
5842;DHT22;2947;52.276;9.946;2023-04-16T16:10:39;12.70;1.00
5842;DHT22;2947;52.276;9.946;2023-04-16T16:13:06;12.70;1.00
5842;DHT22;2947;52.276;9.946;2023-04-16T16:15:39;12.60;1.00
5842;DHT22;2947;52.276;9.946;2023-04-16T16:18:06;12.70;1.00
5842;DHT22;2947;52.276;9.946;2023-04-16T16:20:32;12.70;1.00